Time;durP1;ratioP1;P1;durP2;ratioP2;P2;SDS_P1;SDS_P2;PMS_P1;PMS_P2;Temp;Humidity;BMP_temperature;BMP_pressure;BME280_temperature;BME280_humidity;BME280_pressure;Samples;Min_cycle;Max_cycle;Signal;HPM_P1;HPM_P2
2023/06/22 00:00:22;;;;;;;8.02;6.65;;;21.20;99.90;;;20.64;100.00;98103.09;5039593;28;20057;-71
2023/06/22 00:02:49;;;;;;;9.82;6.57;;;21.20;99.90;;;20.39;100.00;98165.56;5039183;28;20084;-71
2023/06/22 00:05:16;;;;;;;6.97;5.80;;;21.00;99.90;;;20.27;100.00;98227.94;5038917;28;20402;-71
2023/06/22 00:07:43;;;;;;;8.10;7.22;;;21.00;99.90;;;20.19;100.00;98267.19;5036776;28;20041;-72
2023/06/22 00:10:10;;;;;;;9.48;7.13;;;20.80;99.90;;;20.17;100.00;98258.53;5038722;28;20045;-71
2023/06/22 00:12:38;;;;;;;9.20;5.53;;;20.70;99.90;;;20.31;100.00;98215.38;5035726;28;20045;-71
2023/06/22 00:15:05;;;;;;;9.68;7.15;;;20.80;99.90;;;20.16;100.00;98150.56;5037927;28;20166;-71
2023/06/22 00:17:32;;;;;;;12.38;7.15;;;20.90;99.90;;;19.95;100.00;98090.56;5041220;28;20048;-71
2023/06/22 00:20:00;;;;;;;11.02;7.32;;;20.70;99.90;;;19.88;100.00;98017.38;5039103;28;20128;-71
2023/06/22 00:22:30;;;;;;;9.70;5.90;;;20.60;99.90;;;19.98;100.00;97969.16;5040887;28;20056;-71
2023/06/22 00:24:57;;;;;;;8.00;6.18;;;20.50;99.90;;;20.06;100.00;97961.50;5042057;28;20057;-72
2023/06/22 00:27:24;;;;;;;10.75;6.03;;;20.50;99.90;;;20.06;100.00;97984.38;5042845;28;20057;-71
2023/06/22 00:29:51;;;;;;;6.85;5.38;;;20.50;99.90;;;19.96;100.00;98030.84;5042473;28;20064;-71
2023/06/22 00:32:19;;;;;;;9.75;5.65;;;20.60;99.90;;;19.98;100.00;98042.06;5037243;28;20080;-71
2023/06/22 00:34:46;;;;;;;7.50;5.70;;;20.60;99.90;;;20.03;100.00;98046.06;5038447;28;20066;-71
2023/06/22 00:37:13;;;;;;;9.52;6.10;;;20.70;99.90;;;20.04;100.00;98065.34;5040363;28;21008;-71
2023/06/22 00:39:40;;;;;;;13.80;7.80;;;20.70;99.90;;;19.72;100.00;98073.78;5038997;28;20091;-71
2023/06/22 00:42:07;;;;;;;7.88;6.18;;;20.70;99.90;;;19.69;100.00;98103.00;5040046;28;20215;-71
2023/06/22 00:44:36;;;;;;;10.55;7.30;;;20.70;99.90;;;19.55;100.00;98108.38;5040596;28;20404;-71
2023/06/22 00:47:04;;;;;;;10.65;7.38;;;20.60;99.90;;;19.56;100.00;98113.50;5038656;28;20080;-71
2023/06/22 00:49:31;;;;;;;7.82;6.28;;;20.50;99.90;;;19.55;100.00;98114.47;5026274;28;20048;-71
2023/06/22 00:51:58;;;;;;;8.82;6.70;;;20.50;99.90;;;19.45;100.00;98113.44;5038475;28;20521;-71
2023/06/22 00:54:25;;;;;;;10.10;6.75;;;20.50;99.90;;;19.56;100.00;98113.50;5044236;28;20087;-71
2023/06/22 00:56:56;;;;;;;8.73;7.22;;;20.40;99.90;;;19.68;100.00;98096.00;5020332;28;21559;-71
2023/06/22 00:59:26;;;;;;;10.45;6.82;;;20.40;99.90;;;19.64;100.00;98094.56;5026427;28;20134;-71
2023/06/22 01:01:53;;;;;;;9.75;7.50;;;20.40;99.90;;;19.32;100.00;98081.03;5037565;28;20470;-71
2023/06/22 01:04:35;;;;;;;10.52;7.18;;;20.40;99.90;;;19.31;100.00;98064.38;5038030;28;20138;-71
2023/06/22 01:07:31;;;;;;;9.30;7.80;;;20.30;99.90;;;19.30;100.00;98065.34;5034814;28;20057;-71
2023/06/22 01:10:14;;;;;;;8.02;7.10;;;20.30;99.90;;;19.32;100.00;98066.09;5015198;28;20674;-71
2023/06/22 01:12:52;;;;;;;8.48;6.82;;;20.20;99.90;;;19.42;100.00;98071.53;5034861;28;20051;-71
2023/06/22 01:15:37;;;;;;;8.55;7.65;;;20.20;99.90;;;19.30;100.00;98062.72;5039725;28;20041;-71
2023/06/22 01:18:05;;;;;;;10.55;7.25;;;20.20;99.90;;;19.10;100.00;98050.94;5035729;28;20127;-71
2023/06/22 01:20:35;;;;;;;9.48;6.35;;;20.20;99.90;;;18.97;100.00;98048.31;5042569;28;20577;-71
2023/06/22 01:24:09;;;;;;;9.82;7.75;;;20.10;99.90;;;18.97;100.00;98050.94;5042310;28;20156;-71
2023/06/22 01:27:01;;;;;;;8.60;6.45;;;20.00;99.90;;;18.94;100.00;98051.19;5025838;28;20084;-71
2023/06/22 01:29:29;;;;;;;9.45;7.43;;;19.90;99.90;;;18.89;100.00;98052.44;5039154;28;20827;-71
2023/06/22 01:31:57;;;;;;;10.05;7.88;;;19.90;99.90;;;18.95;100.00;98059.91;5039319;28;20054;-71
2023/06/22 01:34:25;;;;;;;8.35;7.07;;;19.90;99.90;;;19.10;100.00;98068.53;5040039;28;20053;-71
2023/06/22 01:36:53;;;;;;;9.07;6.57;;;19.80;99.90;;;19.17;100.00;98060.09;5041257;28;20149;-71
2023/06/22 01:39:22;;;;;;;8.93;7.18;;;19.80;99.90;;;19.13;100.00;98057.78;5035206;28;20049;-70
2023/06/22 01:41:50;;;;;;;9.35;8.30;;;19.90;99.90;;;19.12;100.00;98056.94;5037480;28;20085;-70
2023/06/22 01:44:18;;;;;;;8.43;7.30;;;19.90;99.90;;;19.18;100.00;98056.53;5038924;28;20084;-71
2023/06/22 01:46:45;;;;;;;7.85;6.30;;;19.90;99.90;;;19.18;100.00;98047.78;5039005;28;20498;-71
2023/06/22 01:49:13;;;;;;;9.38;7.43;;;19.90;99.90;;;19.29;100.00;98053.13;5038486;28;20413;-70
2023/06/22 01:51:40;;;;;;;9.88;7.60;;;19.90;99.90;;;19.23;100.00;98053.56;5038792;28;20057;-71
2023/06/22 01:54:08;;;;;;;8.65;6.75;;;19.90;99.90;;;19.27;100.00;98046.28;5037006;28;20041;-71
2023/06/22 01:56:35;;;;;;;9.00;7.70;;;20.00;99.90;;;19.11;100.00;98038.63;5041034;28;20048;-71
2023/06/22 01:59:26;;;;;;;8.20;6.82;;;20.00;99.90;;;19.25;100.00;98035.88;5036535;28;20049;-71
2023/06/22 02:02:09;;;;;;;10.20;7.95;;;20.00;99.90;;;19.14;100.00;98026.13;5037654;28;20096;-71
2023/06/22 02:04:48;;;;;;;8.70;7.28;;;20.00;99.90;;;19.11;100.00;98025.47;5041137;28;20057;-71
2023/06/22 02:07:18;;;;;;;9.85;8.07;;;20.00;99.90;;;19.03;100.00;98031.28;5041609;28;20144;-71
2023/06/22 02:09:49;;;;;;;9.30;7.47;;;19.90;99.90;;;19.05;100.00;98020.66;5036212;28;20132;-71
2023/06/22 02:12:22;;;;;;;11.85;7.28;;;19.90;99.90;;;19.04;100.00;98017.16;5038226;28;20096;-71
2023/06/22 02:14:51;;;;;;;9.98;6.53;;;19.90;99.90;;;19.07;100.00;98016.97;5040196;28;20137;-71
2023/06/22 02:17:19;;;;;;;9.55;7.25;;;19.80;99.90;;;18.97;100.00;98010.66;5034330;28;20529;-71
2023/06/22 02:19:46;;;;;;;8.38;7.03;;;19.80;99.90;;;19.05;100.00;98000.44;5039060;28;20072;-71
2023/06/22 02:22:13;;;;;;;10.30;7.70;;;19.80;99.90;;;18.86;100.00;97994.78;5035466;28;20045;-71
2023/06/22 02:24:40;;;;;;;9.98;8.10;;;19.80;99.90;;;18.84;100.00;97989.66;5040610;28;20142;-71
2023/06/22 02:27:07;;;;;;;10.13;8.20;;;19.80;99.90;;;18.75;100.00;97985.00;5038507;28;20060;-71
2023/06/22 02:29:35;;;;;;;8.82;7.93;;;19.70;99.90;;;18.61;100.00;97983.31;5035544;28;20049;-71
2023/06/22 02:32:03;;;;;;;11.75;8.98;;;19.60;99.90;;;18.66;100.00;97980.38;5040745;28;20139;-70
2023/06/22 02:34:33;;;;;;;13.63;10.35;;;19.50;99.90;;;18.61;100.00;97996.47;5038340;28;20513;-71
2023/06/22 02:37:04;;;;;;;12.27;9.55;;;19.40;99.90;;;18.54;100.00;97990.78;5040206;28;20069;-71
2023/06/22 02:39:33;;;;;;;11.13;9.93;;;19.40;99.90;;;18.57;100.00;97993.19;5037903;28;20041;-71
2023/06/22 02:42:00;;;;;;;10.27;9.05;;;19.40;99.90;;;18.43;100.00;97993.31;5039418;28;20045;-70
2023/06/22 02:44:27;;;;;;;11.18;9.43;;;19.30;99.90;;;18.41;100.00;97981.22;5036614;28;20053;-70
2023/06/22 02:46:55;;;;;;;14.30;9.90;;;19.20;99.90;;;18.39;100.00;97989.19;5038677;28;20049;-71
2023/06/22 02:49:23;;;;;;;11.43;9.65;;;19.20;99.90;;;18.37;100.00;97983.19;5039224;28;20080;-71
2023/06/22 02:51:50;;;;;;;15.10;10.73;;;19.20;99.90;;;18.28;100.00;97982.03;5039580;28;20060;-71
2023/06/22 02:54:17;;;;;;;9.90;8.70;;;19.10;99.90;;;18.19;100.00;97977.41;5023153;28;20128;-71
2023/06/22 02:56:44;;;;;;;12.63;10.27;;;19.10;99.90;;;18.30;100.00;97977.50;5040505;28;20041;-71
2023/06/22 02:59:11;;;;;;;12.73;10.45;;;19.10;99.90;;;18.32;100.00;97985.31;5037833;28;20162;-71
2023/06/22 03:01:41;;;;;;;13.00;10.45;;;19.10;99.90;;;18.32;100.00;97980.88;5042768;28;20060;-71
2023/06/22 03:04:13;;;;;;;10.63;9.32;;;19.10;99.90;;;18.28;100.00;97979.41;5038530;28;20805;-71
2023/06/22 03:06:40;;;;;;;11.75;9.27;;;19.10;99.90;;;18.33;100.00;97973.84;5037124;28;20048;-71
2023/06/22 03:09:07;;;;;;;11.93;10.20;;;19.00;99.90;;;18.41;100.00;97961.03;5033171;28;20049;-71
2023/06/22 03:11:34;;;;;;;13.52;10.77;;;19.00;99.90;;;18.43;100.00;97955.66;5039531;28;20907;-71
2023/06/22 03:14:02;;;;;;;12.88;10.43;;;19.10;99.90;;;18.37;100.00;97957.75;5036900;28;20463;-71
2023/06/22 03:16:29;;;;;;;12.63;10.98;;;19.10;99.90;;;18.32;100.00;97954.59;5043215;28;20144;-71
2023/06/22 03:18:56;;;;;;;12.98;10.82;;;19.10;99.90;;;18.33;100.00;97963.31;5038935;28;20131;-71
2023/06/22 03:21:24;;;;;;;14.40;10.77;;;19.10;99.90;;;18.38;100.00;97971.72;5041076;28;20119;-71
2023/06/22 03:23:51;;;;;;;15.90;10.82;;;19.00;99.90;;;18.38;100.00;97966.47;5042412;28;20521;-71
2023/06/22 03:26:19;;;;;;;11.90;10.60;;;19.00;99.90;;;18.28;100.00;97968.88;5040084;28;20049;-71
2023/06/22 03:28:46;;;;;;;13.90;10.98;;;19.10;99.90;;;18.36;100.00;97968.38;5035605;28;20611;-71
2023/06/22 03:31:13;;;;;;;13.65;10.57;;;19.10;99.90;;;18.32;100.00;97965.13;5038300;28;20134;-71
2023/06/22 03:33:41;;;;;;;12.30;11.00;;;19.10;99.90;;;18.39;100.00;97960.28;5039446;28;20053;-71
2023/06/22 03:36:08;;;;;;;12.10;9.93;;;19.10;99.90;;;18.26;100.00;97957.63;5039812;28;20073;-71
2023/06/22 03:38:35;;;;;;;11.63;9.80;;;19.00;99.90;;;18.17;100.00;97966.97;5039590;28;20069;-71
2023/06/22 03:41:02;;;;;;;12.95;10.82;;;19.10;99.90;;;18.16;100.00;97961.84;5036490;28;20947;-71
2023/06/22 03:43:29;;;;;;;12.18;10.85;;;19.00;99.90;;;18.21;100.00;97958.91;5037929;28;20424;-71
2023/06/22 03:45:56;;;;;;;14.55;10.05;;;19.00;99.90;;;18.25;100.00;97963.84;5036560;28;20048;-72
2023/06/22 03:48:23;;;;;;;14.88;10.90;;;18.90;99.90;;;18.24;100.00;97970.03;5037476;28;20049;-71
2023/06/22 03:50:50;;;;;;;12.93;10.77;;;18.90;99.90;;;18.23;100.00;97964.91;5040394;28;20079;-71
2023/06/22 03:53:18;;;;;;;12.45;10.52;;;18.90;99.90;;;18.20;100.00;97963.34;5038431;28;20051;-72
2023/06/22 03:55:50;;;;;;;12.07;9.60;;;18.90;99.90;;;18.33;100.00;97961.53;5040018;28;20517;-70
2023/06/22 03:58:18;;;;;;;;;;;19.00;99.90;;;18.29;100.00;97948.69;5039342;28;20466;-71
2023/06/22 04:00:53;;;;;;;11.68;9.18;;;19.00;99.90;;;18.37;100.00;97957.75;5041416;28;20013;-72
2023/06/22 04:03:20;;;;;;;11.98;9.93;;;19.00;99.90;;;18.35;100.00;97950.91;5042756;28;20049;-71
2023/06/22 04:05:48;;;;;;;11.18;9.80;;;19.00;99.90;;;18.36;100.00;97948.19;5038062;28;20103;-71
2023/06/22 04:08:16;;;;;;;11.73;9.95;;;19.00;99.90;;;18.41;100.00;97949.69;5039691;28;20053;-71
2023/06/22 04:10:43;;;;;;;13.32;10.52;;;19.00;99.90;;;18.38;100.00;97954.19;5042661;28;20144;-71
2023/06/22 04:13:11;;;;;;;12.18;9.60;;;19.10;99.90;;;18.46;100.00;97945.78;5040805;28;20038;-71
2023/06/22 04:15:38;;;;;;;12.20;9.82;;;19.10;99.90;;;18.47;100.00;97950.06;5043457;28;20052;-71
2023/06/22 04:18:05;;;;;;;11.05;9.95;;;19.10;99.90;;;18.51;100.00;97948.91;5043607;28;20134;-71
2023/06/22 04:20:32;;;;;;;12.38;9.95;;;19.10;99.90;;;18.53;100.00;97941.78;5044696;28;20247;-70
2023/06/22 04:23:00;;;;;;;12.80;10.50;;;19.20;99.90;;;18.62;100.00;97945.56;5040999;28;20048;-71
2023/06/22 04:25:27;;;;;;;11.70;10.50;;;19.20;99.90;;;18.57;100.00;97932.72;5041822;28;20501;-71
2023/06/22 04:27:54;;;;;;;14.43;11.30;;;19.20;99.90;;;18.59;100.00;97935.25;5037845;28;20056;-71
2023/06/22 04:30:22;;;;;;;12.73;11.23;;;19.20;99.90;;;18.66;100.00;97938.31;5025057;28;20064;-71
2023/06/22 04:32:56;;;;;;;12.73;11.13;;;19.20;99.90;;;18.75;100.00;97940.28;5041690;28;20072;-71
2023/06/22 04:35:25;;;;;;;11.55;10.13;;;19.20;99.90;;;18.91;100.00;97942.72;5042893;28;20546;-71
2023/06/22 04:37:56;;;;;;;13.75;11.45;;;19.30;99.90;;;18.94;100.00;97940.69;5039574;28;20460;-70
2023/06/22 04:40:23;;;;;;;12.00;10.38;;;19.40;99.90;;;19.08;100.00;97944.13;5041789;28;20068;-71
2023/06/22 04:42:53;;;;;;;13.50;10.35;;;19.50;99.90;;;19.08;100.00;97926.56;5042339;28;20132;-71
2023/06/22 04:45:21;;;;;;;13.48;11.35;;;19.60;99.90;;;19.14;100.00;97912.13;5040460;28;20428;-71
2023/06/22 04:47:49;;;;;;;12.98;10.88;;;19.60;99.90;;;19.18;100.00;97909.16;5024971;28;20444;-71
2023/06/22 04:50:17;;;;;;;16.58;11.95;;;19.70;99.90;;;19.32;100.00;97909.97;5040853;28;20049;-71
2023/06/22 04:52:45;;;;;;;17.15;12.32;;;19.70;99.90;;;19.25;100.00;97904.31;5044818;28;20067;-70
2023/06/22 04:55:12;;;;;;;13.25;11.85;;;19.80;99.90;;;19.35;100.00;97909.72;5029389;28;20424;-70
2023/06/22 04:57:48;;;;;;;14.23;10.82;;;19.80;99.90;;;19.46;100.00;97912.41;5039488;28;20053;-71
2023/06/22 05:00:19;;;;;;;13.73;12.00;;;19.90;99.90;;;19.62;100.00;97901.59;5038721;28;20083;-70
2023/06/22 05:02:47;;;;;;;15.87;12.60;;;20.00;99.90;;;19.58;100.00;97884.34;5040530;28;20045;-71
2023/06/22 05:05:16;;;;;;;13.77;12.13;;;20.10;99.90;;;19.65;100.00;97889.03;5042909;28;20322;-71
2023/06/22 05:07:48;;;;;;;15.65;11.40;;;20.10;99.90;;;19.82;100.00;97889.59;5042392;28;20136;-71
2023/06/22 05:10:15;;;;;;;15.52;13.52;;;20.20;99.90;;;19.78;100.00;97867.09;5024753;28;20057;-70
2023/06/22 05:12:42;;;;;;;17.08;11.82;;;20.30;99.90;;;19.77;100.00;97868.03;5037471;28;20048;-71
2023/06/22 05:15:10;;;;;;;16.67;12.35;;;20.30;99.90;;;19.77;100.00;97860.13;5042514;28;20099;-71
2023/06/22 05:17:42;;;;;;;13.68;12.27;;;20.30;99.90;;;19.87;100.00;97858.47;5043407;28;20156;-71
2023/06/22 05:20:12;;;;;;;17.48;13.65;;;20.30;99.90;;;19.92;100.00;97852.84;5043663;28;20449;-71
2023/06/22 05:22:43;;;;;;;15.25;12.70;;;20.30;99.90;;;19.98;100.00;97863.78;5042954;28;20501;-71
2023/06/22 05:25:12;;;;;;;14.60;12.13;;;20.30;99.90;;;19.97;100.00;97854.16;5043083;28;20168;-71
2023/06/22 05:27:39;;;;;;;14.30;12.80;;;20.40;99.90;;;20.14;100.00;97854.66;5043249;28;20045;-71
2023/06/22 05:30:07;;;;;;;15.57;13.23;;;20.50;99.90;;;20.34;100.00;97858.41;5041242;28;20139;-71
2023/06/22 05:32:38;;;;;;;15.73;13.18;;;20.60;99.90;;;20.24;100.00;97845.09;5044360;28;20057;-71
2023/06/22 05:35:06;;;;;;;16.25;13.43;;;20.70;99.90;;;20.47;100.00;97852.03;5042008;28;20056;-71
2023/06/22 05:37:33;;;;;;;14.40;11.80;;;20.80;99.90;;;20.50;100.00;97837.78;5045092;28;20049;-71
2023/06/22 05:40:00;;;;;;;15.70;12.18;;;20.90;99.90;;;20.71;100.00;97835.28;5040128;28;20133;-71
2023/06/22 05:42:28;;;;;;;16.80;12.75;;;20.90;99.90;;;20.73;100.00;97825.44;5040950;28;20509;-71
2023/06/22 05:44:55;;;;;;;15.25;12.73;;;21.00;99.90;;;20.55;100.00;97830.38;5044088;28;20567;-71
2023/06/22 05:47:22;;;;;;;17.98;13.38;;;21.10;99.90;;;20.56;100.00;97825.91;5040242;28;20052;-72
2023/06/22 05:49:50;;;;;;;18.95;13.75;;;21.00;99.90;;;20.44;100.00;97825.94;5040346;28;20049;-71
2023/06/22 05:52:17;;;;;;;16.63;13.30;;;21.00;99.90;;;20.50;100.00;97826.41;5042364;28;20425;-71
2023/06/22 05:54:44;;;;;;;15.90;12.88;;;21.00;99.90;;;20.62;100.00;97833.38;5043996;28;20040;-71
2023/06/22 05:57:11;;;;;;;14.43;11.93;;;21.00;99.90;;;20.67;100.00;97831.22;5042680;28;20049;-71
2023/06/22 05:59:38;;;;;;;14.93;12.27;;;21.10;99.90;;;20.78;100.00;97823.28;5041151;28;20102;-71
2023/06/22 06:02:05;;;;;;;14.20;12.00;;;21.20;99.90;;;20.87;100.00;97829.63;5042422;28;20045;-72
2023/06/22 06:04:33;;;;;;;14.88;12.30;;;21.20;99.90;;;20.81;100.00;97819.56;5039532;28;20057;-71
2023/06/22 06:07:01;;;;;;;16.52;12.15;;;21.30;99.90;;;20.80;100.00;97823.13;5044320;28;20080;-72
2023/06/22 06:09:28;;;;;;;17.98;14.02;;;21.30;99.90;;;20.96;100.00;97805.13;5042387;28;20048;-72
2023/06/22 06:11:55;;;;;;;16.45;12.57;;;21.30;99.90;;;20.97;100.00;97805.97;5043567;28;20045;-72
2023/06/22 06:14:22;;;;;;;14.63;12.70;;;21.40;99.90;;;20.95;100.00;97802.59;5039470;28;20537;-72
2023/06/22 06:16:49;;;;;;;15.82;13.63;;;21.40;99.90;;;20.96;100.00;97809.53;5044014;28;20091;-72
2023/06/22 06:19:17;;;;;;;16.75;13.55;;;21.40;99.90;;;21.16;100.00;97814.03;5043847;28;20052;-72
2023/06/22 06:21:44;;;;;;;15.95;13.80;;;21.50;99.90;;;21.45;100.00;97808.19;5041157;28;20045;-71
2023/06/22 06:24:11;;;;;;;17.33;14.20;;;21.60;99.90;;;21.39;100.00;97796.28;5042040;28;20114;-71
2023/06/22 06:26:39;;;;;;;18.15;14.32;;;21.80;99.90;;;21.32;100.00;97781.94;5036525;28;20048;-71
2023/06/22 06:29:08;;;;;;;16.95;14.02;;;21.80;99.90;;;21.76;100.00;97773.91;5036722;28;20064;-72
2023/06/22 06:31:36;;;;;;;15.77;13.52;;;21.90;99.90;;;21.77;100.00;97780.88;5022572;28;20041;-71
2023/06/22 06:34:03;;;;;;;15.38;13.40;;;22.00;99.90;;;21.48;100.00;97771.81;5040073;28;20052;-71
2023/06/22 06:36:30;;;;;;;16.67;13.32;;;22.00;99.90;;;21.67;100.00;97762.34;5039181;28;20091;-71
2023/06/22 06:39:00;;;;;;;17.40;13.40;;;22.10;99.90;;;21.77;100.00;97762.38;5040832;28;20073;-72
2023/06/22 06:41:27;;;;;;;14.98;13.23;;;22.20;99.90;;;21.73;100.00;97753.84;5039341;28;20550;-71
2023/06/22 06:43:54;;;;;;;13.52;11.98;;;22.20;99.90;;;22.08;100.00;97755.28;5040089;28;20081;-71
2023/06/22 06:46:21;;;;;;;15.13;13.27;;;22.20;99.90;;;22.27;100.00;97742.16;5038286;28;20088;-71
2023/06/22 06:48:48;;;;;;;15.02;12.80;;;22.40;99.90;;;22.15;100.00;97730.00;5036848;28;20048;-71
2023/06/22 06:51:15;;;;;;;19.20;14.00;;;22.60;99.90;;;22.10;100.00;97713.66;5041002;28;20057;-71
2023/06/22 06:53:42;;;;;;;14.90;12.55;;;22.60;99.90;;;22.36;100.00;97707.94;5040093;28;20501;-71
2023/06/22 06:56:10;;;;;;;15.57;12.52;;;22.70;99.90;;;22.60;100.00;97704.91;5039828;28;20509;-72
2023/06/22 06:58:42;;;;;;;14.20;11.80;;;22.80;99.90;;;22.55;100.00;97697.38;5021192;28;20059;-71
2023/06/22 07:01:09;;;;;;;16.05;12.15;;;22.90;99.90;;;22.74;100.00;97693.94;5040558;28;20052;-71
2023/06/22 07:03:36;;;;;;;13.90;11.65;;;23.10;99.90;;;22.62;100.00;97679.97;5036529;28;20144;-71
2023/06/22 07:06:03;;;;;;;14.75;11.05;;;23.20;99.90;;;22.71;100.00;97689.72;5038412;28;20095;-71
2023/06/22 07:08:30;;;;;;;13.60;11.65;;;23.20;99.90;;;22.76;100.00;97674.28;5041524;28;20391;-72
2023/06/22 07:10:58;;;;;;;17.17;11.85;;;23.30;99.90;;;22.79;100.00;97673.19;5040479;28;20086;-71
2023/06/22 07:13:25;;;;;;;13.38;11.45;;;23.30;99.90;;;22.85;100.00;97674.41;5040995;28;20057;-71
2023/06/22 07:15:52;;;;;;;11.77;10.02;;;23.30;99.90;;;23.12;100.00;97668.44;5038170;28;20045;-72
2023/06/22 07:18:19;;;;;;;12.35;10.55;;;23.40;99.90;;;22.98;100.00;97665.22;5038078;28;20519;-72
2023/06/22 07:20:47;;;;;;;13.27;10.23;;;23.40;99.90;;;23.16;100.00;97657.41;5037732;28;20155;-71
2023/06/22 07:23:14;;;;;;;13.65;10.43;;;23.50;99.90;;;23.41;100.00;97651.66;5040111;28;20110;-72
2023/06/22 07:25:41;;;;;;;11.15;9.90;;;23.70;99.90;;;23.65;100.00;97648.47;5041034;28;20445;-71
2023/06/22 07:28:09;;;;;;;13.55;9.88;;;23.80;99.90;;;23.61;100.00;97640.00;5038916;28;20529;-71
2023/06/22 07:30:36;;;;;;;13.30;9.32;;;23.90;99.90;;;23.53;100.00;97632.75;5039036;28;20133;-72
2023/06/22 07:33:03;;;;;;;12.77;9.73;;;24.10;99.90;;;23.67;100.00;97627.97;5039496;28;20089;-71
2023/06/22 07:35:32;;;;;;;12.98;9.70;;;24.00;99.90;;;23.38;100.00;97621.00;5042071;28;20594;-71
2023/06/22 07:37:59;;;;;;;11.77;9.55;;;24.00;99.90;;;23.58;100.00;97622.59;5041251;28;20060;-72
2023/06/22 07:40:31;;;;;;;12.02;9.30;;;24.00;99.90;;;23.63;100.00;97616.84;5043519;28;20054;-71
2023/06/22 07:42:59;;;;;;;13.73;9.35;;;24.00;99.90;;;23.52;100.00;97611.75;5044695;28;20045;-71
2023/06/22 07:45:26;;;;;;;12.27;9.38;;;24.10;99.90;;;23.64;100.00;97613.19;5045230;28;20410;-71
2023/06/22 07:47:53;;;;;;;11.15;9.25;;;24.20;99.90;;;24.02;100.00;97608.72;5040446;28;20171;-72
2023/06/22 07:50:20;;;;;;;10.30;7.95;;;24.30;99.90;;;23.88;100.00;97586.19;5043770;28;20052;-72
2023/06/22 07:52:48;;;;;;;9.13;7.90;;;24.50;99.90;;;24.22;100.00;97580.22;5045096;28;20041;-71
2023/06/22 07:55:15;;;;;;;11.88;8.32;;;24.50;99.90;;;24.05;100.00;97573.09;5045232;28;20056;-71
2023/06/22 07:57:42;;;;;;;8.88;7.20;;;24.70;99.90;;;24.17;100.00;97572.72;5040040;28;20057;-72
2023/06/22 08:00:14;;;;;;;9.55;7.53;;;24.80;99.90;;;24.25;100.00;97564.03;5041783;28;20053;-72
2023/06/22 08:02:44;;;;;;;8.32;7.32;;;24.80;99.90;;;24.45;100.00;97564.72;5042991;28;20115;-71
2023/06/22 08:05:11;;;;;;;7.82;6.90;;;24.80;99.90;;;24.36;100.00;97560.31;5042609;28;20589;-72
2023/06/22 08:07:59;;;;;;;9.23;7.32;;;24.90;99.90;;;24.93;100.00;97558.13;5043734;28;20120;-71
2023/06/22 08:10:26;;;;;;;10.02;6.97;;;25.10;99.90;;;25.14;100.00;97551.59;5041982;28;20053;-71
2023/06/22 08:12:53;;;;;;;9.57;6.95;;;25.40;99.90;;;25.40;100.00;97540.97;5039689;28;20049;-72
2023/06/22 08:15:21;;;;;;;7.95;6.07;;;25.60;99.90;;;25.14;100.00;97536.50;5042869;28;20139;-71
2023/06/22 08:17:49;;;;;;;11.50;6.18;;;25.70;99.90;;;25.16;100.00;97554.94;5038842;28;20104;-74
2023/06/22 08:20:16;;;;;;;9.50;6.97;;;25.80;99.90;;;25.29;100.00;97544.72;5024483;28;20049;-75
2023/06/22 08:22:43;;;;;;;9.80;6.35;;;25.80;99.90;;;25.69;100.00;97532.59;5042568;28;20049;-74
2023/06/22 08:25:12;;;;;;;7.07;5.97;;;25.80;99.90;;;26.71;100.00;97535.91;5039303;28;20052;-75
2023/06/22 08:27:39;;;;;;;7.93;6.38;;;26.30;99.90;;;26.21;100.00;97529.72;5041338;28;20052;-74
2023/06/22 08:30:10;;;;;;;7.82;5.82;;;26.70;99.90;;;25.63;100.00;97523.44;5043160;28;20595;-74
2023/06/22 08:32:38;;;;;;;8.13;5.60;;;26.60;99.90;;;25.81;100.00;97522.47;5036519;28;20143;-75
2023/06/22 08:35:08;;;;;;;9.32;5.70;;;26.50;99.90;;;25.73;100.00;97522.44;5042328;28;20059;-74
2023/06/22 08:37:36;;;;;;;9.18;5.68;;;26.50;99.90;;;26.08;100.00;97519.56;5021248;28;20049;-74
2023/06/22 08:40:08;;;;;;;6.95;5.30;;;26.50;99.90;;;25.96;100.00;97518.22;5035132;28;20593;-73
2023/06/22 08:42:36;;;;;;;9.75;4.95;;;26.40;99.90;;;26.06;100.00;97531.38;5039123;28;20048;-75
2023/06/22 08:45:04;;;;;;;12.10;4.35;;;26.40;99.90;;;25.59;100.00;97532.75;5036409;28;20049;-74
2023/06/22 08:47:31;;;;;;;7.82;4.80;;;26.40;99.90;;;26.14;100.00;97514.56;5039400;28;20144;-77
2023/06/22 08:49:58;;;;;;;8.73;5.40;;;26.30;99.90;;;25.97;100.00;97509.25;5034829;28;20506;-76
2023/06/22 08:52:26;;;;;;;6.68;5.05;;;26.50;99.90;;;26.16;100.00;97502.78;5039076;28;20996;-76
2023/06/22 08:54:53;;;;;;;7.35;4.68;;;26.50;99.90;;;26.34;100.00;97507.94;5043596;28;20104;-75
2023/06/22 08:57:21;;;;;;;9.80;5.05;;;26.70;99.90;;;26.40;100.00;97499.28;5042150;28;20528;-76
2023/06/22 08:59:48;;;;;;;8.30;4.40;;;26.80;99.90;;;26.42;100.00;97507.94;5044050;28;20188;-79
2023/06/22 09:02:16;;;;;;;7.53;4.35;;;26.80;99.90;;;26.97;100.00;97502.91;5025131;28;20576;-77
2023/06/22 09:04:44;;;;;;;7.40;5.45;;;27.10;99.90;;;27.15;100.00;97498.19;5042274;28;20052;-77
2023/06/22 09:07:11;;;;;;;10.00;4.97;;;27.40;99.90;;;27.43;100.00;97490.59;5040031;28;20044;-74
2023/06/22 09:09:38;;;;;;;5.45;4.00;;;27.70;99.90;;;27.06;100.00;97486.72;5037507;28;20103;-76
2023/06/22 09:12:06;;;;;;;6.88;4.43;;;27.90;99.90;;;27.15;100.00;97468.88;5042590;28;20052;-75
2023/06/22 09:14:33;;;;;;;7.07;4.22;;;27.80;99.90;;;27.27;100.00;97488.81;5040724;28;20053;-75
2023/06/22 09:17:00;;;;;;;7.40;4.25;;;27.70;99.90;;;27.16;100.00;97486.50;5040561;28;20055;-75
2023/06/22 09:19:28;;;;;;;6.97;4.60;;;27.60;99.90;;;27.31;100.00;97478.66;5043477;28;20131;-74
2023/06/22 09:21:55;;;;;;;5.25;4.20;;;27.80;99.90;;;27.60;100.00;97472.69;5040952;28;20517;-76
2023/06/22 09:24:22;;;;;;;6.90;4.43;;;28.20;99.90;;;28.95;100.00;97470.25;5044168;28;20497;-77
2023/06/22 09:26:50;;;;;;;7.20;4.90;;;28.80;99.90;;;29.15;100.00;97456.38;5039858;28;20076;-76
2023/06/22 09:29:17;;;;;;;6.07;4.35;;;29.50;99.90;;;30.02;100.00;97455.50;5039861;28;20052;-76
2023/06/22 09:31:44;;;;;;;7.90;4.57;;;30.20;99.90;;;29.70;100.00;97444.28;5036080;28;20587;-78
2023/06/22 09:34:12;;;;;;;9.02;4.80;;;30.70;99.90;;;30.52;100.00;97448.31;5036363;28;20139;-77
2023/06/22 09:36:41;;;;;;;5.53;4.00;;;31.20;99.90;;;30.75;100.00;97449.91;5040116;28;20080;-76
2023/06/22 09:39:08;;;;;;;6.30;4.13;;;31.90;99.90;;;31.47;100.00;97440.59;5041518;28;20095;-76
2023/06/22 09:41:35;;;;;;;7.65;4.47;;;32.20;99.90;;;31.77;100.00;97419.63;5042723;28;20052;-78
2023/06/22 09:44:02;;;;;;;6.10;3.90;;;32.60;99.90;;;30.47;100.00;97421.28;5040570;28;20068;-76
2023/06/22 09:46:29;;;;;;;10.70;4.22;;;32.70;99.90;;;31.47;100.00;97419.13;5040275;28;20053;-80
2023/06/22 09:48:56;;;;;;;8.65;4.00;;;32.40;99.90;;;31.31;100.00;97417.63;5043326;28;20563;-76
2023/06/22 09:51:23;;;;;;;7.20;3.97;;;32.60;99.90;;;31.75;100.00;97402.91;5035616;28;20472;-78
2023/06/22 09:53:53;;;;;;;7.53;3.70;;;32.60;99.90;;;32.30;100.00;97400.88;5032203;28;20056;-76
2023/06/22 09:56:20;;;;;;;7.32;3.88;;;33.00;99.90;;;31.09;100.00;97402.69;5034592;28;20049;-76
2023/06/22 09:58:50;;;;;;;6.88;3.90;;;33.00;99.90;;;31.04;100.00;97390.72;5037914;28;20049;-75
2023/06/22 10:01:20;;;;;;;7.43;3.92;;;32.80;99.90;;;31.99;100.00;97385.41;5039682;28;20052;-75
2023/06/22 10:03:47;;;;;;;6.75;3.60;;;33.00;99.90;;;32.78;100.00;97380.97;5038344;28;20041;-78
2023/06/22 10:06:17;;;;;;;7.47;4.70;;;33.30;99.90;;;32.02;100.00;97382.31;5019449;28;20137;-76
2023/06/22 10:08:44;;;;;;;7.65;3.53;;;33.50;99.90;;;31.68;100.00;97369.84;5039269;28;20048;-77
2023/06/22 10:11:17;;;;;;;5.90;3.72;;;33.40;99.90;;;33.11;100.00;97370.09;5040257;28;20049;-77